Terminal Aerodrome Forecast
Issued by NWS Portland, OR

Home | Current Version | Previous Version | Text Only | Print | Product List | Glossary On
Versions: 1 2 3 4 5 6 7 8 9 10 11 12 13 14 15 16 17 18 19 20 21 22 23 24 25 26 27 28 29 30 31 32 33 34 35 36 37 38 39 40 41 42 43 44 45 46 47
000
FTUS46 KPQR 261724
TAFHIO
TAF
KHIO 261724Z 2618/2718 23007KT P6SM -SHRA SCT035 BKN050 OVC060
     FM262000 24010KT P6SM -SHRA BKN025 OVC045
     FM270000 27007KT P6SM -SHRA SCT030 OVC045
     FM270600 24005KT P6SM VCSH BKN050=

USA.gov is the U.S. government's official web portal to all federal, state and local government web resources and services.